createdAt,value
2023-09-18T00:00:37.412Z,95.00
2023-09-18T00:01:37.444Z,95.50
2023-09-18T00:02:37.547Z,96.41
2023-09-18T00:03:37.411Z,96.21
2023-09-18T00:04:37.365Z,96.11
2023-09-18T00:05:37.389Z,95.81
2023-09-18T00:06:37.329Z,95.70
2023-09-18T00:07:37.339Z,96.41
2023-09-18T00:08:37.306Z,96.36
2023-09-18T00:09:37.305Z,97.06
2023-09-18T00:10:37.279Z,96.86
2023-09-18T00:11:37.285Z,96.76
2023-09-18T00:12:37.283Z,97.16
2023-09-18T00:13:37.245Z,97.06
2023-09-18T00:14:37.228Z,97.36
2023-09-18T00:15:37.218Z,96.96
2023-09-18T00:16:48.118Z,96.86
2023-09-18T00:17:38.245Z,96.91
2023-09-18T00:18:37.186Z,97.01
2023-09-18T00:19:37.166Z,97.21
2023-09-18T00:20:37.174Z,97.41
2023-09-18T00:21:37.149Z,97.71
2023-09-18T00:22:37.136Z,97.81
2023-09-18T00:23:37.112Z,98.22
2023-09-18T00:24:37.097Z,98.82
2023-09-18T00:25:37.098Z,98.72
2023-09-18T00:26:37.084Z,98.72
2023-09-18T00:27:37.057Z,99.02
2023-09-18T00:28:37.049Z,98.93
2023-09-18T00:29:37.056Z,99.43
2023-09-18T00:30:37.036Z,99.68
2023-09-18T00:31:37.042Z,99.27
2023-09-18T00:32:37.073Z,99.07
2023-09-18T00:33:36.991Z,99.22
2023-09-18T00:34:36.977Z,99.22
2023-09-18T00:35:36.997Z,99.43
2023-09-18T00:36:36.952Z,99.63
2023-09-18T00:37:36.934Z,99.33
2023-09-18T00:38:36.985Z,99.13
2023-09-18T00:39:36.916Z,98.93
2023-09-18T00:40:36.901Z,98.82
2023-09-18T00:41:36.876Z,98.42
2023-09-18T00:42:36.860Z,98.22
2023-09-18T00:43:36.866Z,98.27
2023-09-18T00:44:36.849Z,97.56
2023-09-18T00:45:36.859Z,97.77
2023-09-18T00:46:36.815Z,97.56
2023-09-18T00:47:36.875Z,97.16
2023-09-18T00:48:36.781Z,97.06
2023-09-18T00:49:36.784Z,96.86
2023-09-18T00:50:36.831Z,96.71
2023-09-18T00:51:36.757Z,96.31
2023-09-18T00:52:36.725Z,96.01
2023-09-18T00:53:36.732Z,96.21
2023-09-18T00:54:36.745Z,96.11
2023-09-18T00:55:36.695Z,95.70
2023-09-18T00:56:36.753Z,95.30
2023-09-18T00:57:36.670Z,95.40
2023-09-18T00:58:36.673Z,95.70
2023-09-18T00:59:36.655Z,95.10
2023-09-18T01:00:36.632Z,94.80
2023-09-18T01:01:36.656Z,95.30
2023-09-18T01:02:36.742Z,95.00
2023-09-18T01:03:36.646Z,95.20
2023-09-18T01:04:36.574Z,94.80
2023-09-18T01:05:36.603Z,95.20
2023-09-18T01:06:36.552Z,95.40
2023-09-18T01:07:36.553Z,95.00
2023-09-18T01:08:36.561Z,95.30
2023-09-18T01:09:36.520Z,95.70
2023-09-18T01:10:36.501Z,95.30
2023-09-18T01:11:36.497Z,95.40
2023-09-18T01:12:36.473Z,95.50
2023-09-18T01:13:36.460Z,95.10
2023-09-18T01:14:36.469Z,95.20
2023-09-18T01:15:36.461Z,96.01
2023-09-18T01:16:36.424Z,95.70
2023-09-18T01:17:36.487Z,95.55
2023-09-18T01:18:36.381Z,95.25
2023-09-18T01:19:36.378Z,95.35
2023-09-18T01:20:36.427Z,96.15
2023-09-18T01:21:36.362Z,96.05
2023-09-18T01:22:36.340Z,95.95
2023-09-18T01:23:36.399Z,96.36
2023-09-18T01:24:36.315Z,96.45
2023-09-18T01:25:36.302Z,96.66
2023-09-18T01:26:36.319Z,96.45
2023-09-18T01:27:36.272Z,96.25
2023-09-18T01:28:36.257Z,96.15
2023-09-18T01:29:36.298Z,97.01
2023-09-18T01:30:36.235Z,96.70
2023-09-18T01:31:36.277Z,97.21
2023-09-18T01:32:36.278Z,97.51
2023-09-18T01:33:36.194Z,97.51
2023-09-18T01:34:36.172Z,97.21
2023-09-18T01:35:36.246Z,97.21
2023-09-18T01:36:36.175Z,97.45
2023-09-18T01:37:36.167Z,97.66
2023-09-18T01:38:36.155Z,97.56
2023-09-18T01:39:36.116Z,97.66
2023-09-18T01:40:36.161Z,98.07
2023-09-18T01:41:36.097Z,98.07
2023-09-18T01:42:36.111Z,98.47
2023-09-18T01:43:36.069Z,98.41
2023-09-18T01:44:36.072Z,98.51
2023-09-18T01:45:36.057Z,98.82
2023-09-18T01:46:36.120Z,99.02
2023-09-18T01:47:36.107Z,99.52
2023-09-18T01:48:35.998Z,99.52
2023-09-18T01:49:36.021Z,99.73
2023-09-18T01:50:36.013Z,99.73
2023-09-18T01:51:35.966Z,99.99
2023-09-18T01:52:35.936Z,99.99
2023-09-18T01:53:35.940Z,99.99
2023-09-18T01:54:35.942Z,99.99
2023-09-18T01:55:35.907Z,99.99
2023-09-18T01:56:35.935Z,99.99
2023-09-18T01:57:35.883Z,99.99
2023-09-18T01:58:35.860Z,99.99
2023-09-18T01:59:35.901Z,99.99
2023-09-18T02:00:35.928Z,99.99
2023-09-18T02:01:35.835Z,99.99
2023-09-18T02:02:46.531Z,99.99
2023-09-18T02:04:08.696Z,99.99
2023-09-18T02:04:39.941Z,99.99
2023-09-18T02:05:36.931Z,99.99
2023-09-18T02:06:35.875Z,99.99
2023-09-18T02:07:35.781Z,99.99
2023-09-18T02:08:35.806Z,99.99
2023-09-18T02:09:35.720Z,99.99
2023-09-18T02:10:35.706Z,99.99
2023-09-18T02:11:35.742Z,99.99
2023-09-18T02:12:35.692Z,99.99
2023-09-18T02:13:35.687Z,99.99
2023-09-18T02:14:35.680Z,99.99
2023-09-18T02:15:35.647Z,99.99
2023-09-18T02:16:35.655Z,99.99
2023-09-18T02:17:35.711Z,99.99
2023-09-18T02:18:35.597Z,99.99
2023-09-18T02:19:35.595Z,99.99
2023-09-18T02:20:35.586Z,99.99
2023-09-18T02:21:35.559Z,99.99
2023-09-18T02:22:35.581Z,99.99
2023-09-18T02:23:35.594Z,99.99
2023-09-18T02:24:35.523Z,99.99
2023-09-18T02:25:35.520Z,99.99
2023-09-18T02:26:35.576Z,99.99
2023-09-18T02:27:35.514Z,99.99
2023-09-18T02:28:35.462Z,99.99
2023-09-18T02:29:35.490Z,99.99
2023-09-18T02:30:35.484Z,99.99
2023-09-18T02:31:35.539Z,99.99
2023-09-18T02:32:35.468Z,99.99
2023-09-18T02:33:35.476Z,99.99
2023-09-18T02:34:35.403Z,99.99
2023-09-18T02:35:35.474Z,99.99
2023-09-18T02:36:35.415Z,99.99
2023-09-18T02:37:35.357Z,99.99
2023-09-18T02:38:35.402Z,99.99
2023-09-18T02:39:35.360Z,99.99
2023-09-18T02:40:35.320Z,99.99
2023-09-18T02:41:35.352Z,99.99
2023-09-18T02:42:35.282Z,99.99
2023-09-18T02:43:35.270Z,99.99
2023-09-18T02:44:35.317Z,99.99
2023-09-18T02:45:35.262Z,99.99
2023-09-18T02:46:35.261Z,99.99
2023-09-18T02:47:35.349Z,99.99
2023-09-18T02:48:42.703Z,99.99
2023-09-18T02:49:42.712Z,99.99
2023-09-18T02:50:35.228Z,99.99
2023-09-18T02:51:35.170Z,99.99
2023-09-18T02:52:35.158Z,99.99
2023-09-18T02:53:35.181Z,99.99
2023-09-18T02:54:35.137Z,99.99
2023-09-18T02:55:35.127Z,99.99
2023-09-18T02:56:35.114Z,99.99
2023-09-18T02:57:35.083Z,99.99
2023-09-18T02:58:35.074Z,99.99
2023-09-18T02:59:35.155Z,99.99
2023-09-18T03:00:43.819Z,99.99
2023-09-18T03:01:36.124Z,99.99
2023-09-18T03:02:35.235Z,99.99
2023-09-18T03:03:35.111Z,99.99
2023-09-18T03:04:35.026Z,99.99
2023-09-18T03:05:35.052Z,99.99
2023-09-18T03:06:34.976Z,99.99
2023-09-18T03:07:34.976Z,99.99
2023-09-18T03:08:34.995Z,99.99
2023-09-18T03:09:34.932Z,99.99
2023-09-18T03:10:34.933Z,99.99
2023-09-18T03:11:34.953Z,99.99
2023-09-18T03:12:34.902Z,99.99
2023-09-18T03:13:34.897Z,99.99
2023-09-18T03:14:35.679Z,99.99
2023-09-18T03:15:34.864Z,99.99
2023-09-18T03:16:34.852Z,99.99
2023-09-18T03:17:34.872Z,99.99
2023-09-18T03:18:34.828Z,99.99
2023-09-18T03:19:34.807Z,99.99
2023-09-18T03:20:34.837Z,99.99
2023-09-18T03:21:34.781Z,99.99
2023-09-18T03:22:34.783Z,99.99
2023-09-18T03:23:34.783Z,99.99
2023-09-18T03:24:34.742Z,99.99
2023-09-18T03:25:49.760Z,99.99
2023-09-18T03:26:35.757Z,99.99
2023-09-18T03:27:34.706Z,99.99
2023-09-18T03:28:34.683Z,99.99
2023-09-18T03:29:34.731Z,99.99
2023-09-18T03:30:34.659Z,99.99
2023-09-18T03:31:34.686Z,99.99
2023-09-18T03:32:34.678Z,99.99
2023-09-18T03:33:34.610Z,99.99
2023-09-18T03:34:34.610Z,99.99
2023-09-18T03:35:34.742Z,99.99
2023-09-18T03:36:34.601Z,99.99
2023-09-18T03:37:34.560Z,99.99
2023-09-18T03:38:34.574Z,99.99
2023-09-18T03:39:34.538Z,99.99
2023-09-18T03:40:34.539Z,99.99
2023-09-18T03:41:34.538Z,99.99
2023-09-18T03:42:34.518Z,99.99
2023-09-18T03:43:34.478Z,99.99
2023-09-18T03:44:34.537Z,99.99
2023-09-18T03:45:34.468Z,99.99
2023-09-18T03:46:34.456Z,99.99
2023-09-18T03:47:34.540Z,99.99
2023-09-18T03:48:34.422Z,99.99
2023-09-18T03:49:34.405Z,99.99
2023-09-18T03:50:34.444Z,99.99
2023-09-18T03:51:34.376Z,99.99
2023-09-18T03:52:34.368Z,99.99
2023-09-18T03:53:34.415Z,99.99
2023-09-18T03:54:34.337Z,99.99
2023-09-18T03:55:34.361Z,99.99
2023-09-18T03:56:34.325Z,99.99
2023-09-18T03:57:34.300Z,99.99
2023-09-18T03:58:36.450Z,99.99
2023-09-18T03:59:34.317Z,99.99
2023-09-18T04:00:34.267Z,99.99
2023-09-18T04:01:34.276Z,99.99
2023-09-18T04:02:34.315Z,99.99
2023-09-18T04:03:34.381Z,99.99
2023-09-18T04:04:34.218Z,99.99
2023-09-18T04:05:34.267Z,99.99
2023-09-18T04:06:34.179Z,99.99
2023-09-18T04:07:34.163Z,99.99
2023-09-18T04:08:34.190Z,99.99
2023-09-18T04:09:34.149Z,99.99
2023-09-18T04:10:34.218Z,99.99
2023-09-18T04:11:34.177Z,99.99
2023-09-18T04:12:34.105Z,99.99
2023-09-18T04:13:34.101Z,99.99
2023-09-18T04:14:34.116Z,99.99
2023-09-18T04:15:34.136Z,99.99
2023-09-18T04:16:34.043Z,99.99
2023-09-18T04:17:34.114Z,99.99
2023-09-18T04:18:34.175Z,99.99
2023-09-18T04:19:34.000Z,99.99
2023-09-18T04:20:34.016Z,99.99
2023-09-18T04:21:33.986Z,99.99
2023-09-18T04:22:34.000Z,99.99
2023-09-18T04:23:33.994Z,99.99
2023-09-18T04:24:33.956Z,99.99
2023-09-18T04:25:33.937Z,99.99
2023-09-18T04:26:33.944Z,99.99
2023-09-18T04:27:33.918Z,99.99
2023-09-18T04:28:33.909Z,99.99
2023-09-18T04:29:33.884Z,99.99
2023-09-18T04:30:33.864Z,99.99
2023-09-18T04:31:33.865Z,99.99
2023-09-18T04:32:33.978Z,99.99
2023-09-18T04:33:34.020Z,99.99
2023-09-18T04:34:33.812Z,99.99
2023-09-18T04:35:33.826Z,99.99
2023-09-18T04:36:34.750Z,99.99
2023-09-18T04:37:33.783Z,99.99
2023-09-18T04:38:33.795Z,99.99
2023-09-18T04:39:33.746Z,99.99
2023-09-18T04:40:33.751Z,99.99
2023-09-18T04:41:33.768Z,99.99
2023-09-18T04:42:33.708Z,99.99
2023-09-18T04:43:33.696Z,99.99
2023-09-18T04:44:33.720Z,99.99
2023-09-18T04:45:33.721Z,99.99
2023-09-18T04:46:33.681Z,99.99
2023-09-18T04:47:33.869Z,99.99
2023-09-18T04:48:33.628Z,99.99
2023-09-18T04:49:33.618Z,99.99
2023-09-18T04:50:33.626Z,99.99
2023-09-18T04:51:33.601Z,99.99
2023-09-18T04:52:33.581Z,99.99
2023-09-18T04:53:33.624Z,99.99
2023-09-18T04:54:33.557Z,99.99
2023-09-18T04:55:33.588Z,99.99
2023-09-18T04:56:33.550Z,99.99
2023-09-18T04:57:33.508Z,99.99
2023-09-18T04:58:33.511Z,99.99
2023-09-18T04:59:33.547Z,99.99
2023-09-18T05:00:33.481Z,99.99
2023-09-18T05:01:33.575Z,99.99
2023-09-18T05:02:33.517Z,99.99
2023-09-18T05:03:33.491Z,99.99
2023-09-18T05:04:33.442Z,99.99
2023-09-18T05:05:33.482Z,99.99
2023-09-18T05:06:33.412Z,99.99
2023-09-18T05:07:33.372Z,99.99
2023-09-18T05:08:33.426Z,99.99
2023-09-18T05:09:33.361Z,99.99
2023-09-18T05:10:33.370Z,99.99
2023-09-18T05:11:33.367Z,99.99
2023-09-18T05:12:33.374Z,99.99
2023-09-18T05:13:33.312Z,99.99
2023-09-18T05:14:33.332Z,99.99
2023-09-18T05:15:33.270Z,99.99
2023-09-18T05:16:35.979Z,99.99
2023-09-18T05:17:33.354Z,99.99
2023-09-18T05:18:33.281Z,99.99
2023-09-18T05:19:33.238Z,99.99
2023-09-18T05:20:33.228Z,99.99
2023-09-18T05:21:33.196Z,99.99
2023-09-18T05:22:33.200Z,99.99
2023-09-18T05:23:33.215Z,99.99
2023-09-18T05:24:33.166Z,99.99
2023-09-18T05:25:33.404Z,99.99
2023-09-18T05:26:33.157Z,99.99
2023-09-18T05:27:41.808Z,99.99
2023-09-18T05:28:33.121Z,99.99
2023-09-18T05:29:33.117Z,99.99
2023-09-18T05:30:33.092Z,99.99
2023-09-18T05:31:33.073Z,99.99
2023-09-18T05:32:33.141Z,99.99
2023-09-18T05:33:33.067Z,99.99
2023-09-18T05:34:33.122Z,99.99
2023-09-18T05:35:33.044Z,99.99
2023-09-18T05:36:33.009Z,99.99
2023-09-18T05:37:33.015Z,99.99
2023-09-18T05:38:33.020Z,99.99
2023-09-18T05:39:32.961Z,99.99
2023-09-18T05:40:32.971Z,99.99
2023-09-18T05:41:32.983Z,99.99
2023-09-18T05:42:32.938Z,99.99
2023-09-18T05:43:32.912Z,99.99
2023-09-18T05:44:32.921Z,99.99
2023-09-18T05:45:33.010Z,99.99
2023-09-18T05:46:32.966Z,99.99
2023-09-18T05:47:32.977Z,99.99
2023-09-18T05:48:32.923Z,99.99
2023-09-18T05:49:32.836Z,99.99
2023-09-18T05:50:32.878Z,99.99
2023-09-18T05:51:32.815Z,99.99
2023-09-18T05:52:32.856Z,99.99
2023-09-18T05:53:32.806Z,99.99
2023-09-18T05:54:32.761Z,99.99
2023-09-18T05:55:32.766Z,99.99
2023-09-18T05:56:32.796Z,99.99
2023-09-18T05:57:32.787Z,99.99
2023-09-18T05:58:32.738Z,99.99
2023-09-18T05:59:32.756Z,99.99
2023-09-18T06:00:32.843Z,99.60
2023-09-18T06:01:32.676Z,98.85
2023-09-18T06:02:32.763Z,97.29
2023-09-18T06:03:32.690Z,96.04
2023-09-18T06:04:32.631Z,94.74
2023-09-18T06:05:33.241Z,93.59
2023-09-18T06:06:32.623Z,92.44
2023-09-18T06:07:32.601Z,91.60
2023-09-18T06:08:32.616Z,89.54
2023-09-18T06:09:32.580Z,89.70
2023-09-18T06:10:32.564Z,87.66
2023-09-18T06:11:32.546Z,87.26
2023-09-18T06:12:32.526Z,86.52
2023-09-18T06:13:32.514Z,86.41
2023-09-18T06:14:32.560Z,85.37
2023-09-18T06:15:32.519Z,84.57
2023-09-18T06:16:32.830Z,84.47
2023-09-18T06:17:32.547Z,84.37
2023-09-18T06:18:32.750Z,85.07
2023-09-18T06:19:32.476Z,85.21
2023-09-18T06:20:32.456Z,85.01
2023-09-18T06:21:32.410Z,85.41
2023-09-18T06:22:32.408Z,85.11
2023-09-18T06:23:32.457Z,85.41
2023-09-18T06:24:32.381Z,84.37
2023-09-18T06:25:32.365Z,84.67
2023-09-18T06:26:32.381Z,83.93
2023-09-18T06:27:32.342Z,83.23
2023-09-18T06:28:32.556Z,83.47
2023-09-18T06:29:41.663Z,83.77
2023-09-18T06:30:32.523Z,83.37
2023-09-18T06:31:32.458Z,83.91
2023-09-18T06:32:32.499Z,83.81
2023-09-18T06:33:32.421Z,84.41
2023-09-18T06:34:32.299Z,84.61
2023-09-18T06:35:32.393Z,84.61
2023-09-18T06:36:32.314Z,84.55
2023-09-18T06:37:32.268Z,84.61
2023-09-18T06:38:32.417Z,84.35
2023-09-18T06:39:32.297Z,84.85
2023-09-18T06:40:32.393Z,84.45
2023-09-18T06:41:32.387Z,84.75
2023-09-18T06:42:32.242Z,84.55
2023-09-18T06:43:32.278Z,85.15
2023-09-18T06:44:32.613Z,84.95
2023-09-18T06:45:32.202Z,85.15
2023-09-18T06:46:32.878Z,84.75
2023-09-18T06:47:32.207Z,84.91
2023-09-18T06:48:32.196Z,84.61
2023-09-18T06:49:32.107Z,84.61
2023-09-18T06:50:32.365Z,84.21
2023-09-18T06:51:42.846Z,84.21
2023-09-18T06:52:33.531Z,84.17
2023-09-18T06:53:32.143Z,84.07
2023-09-18T06:54:32.234Z,84.17
2023-09-18T06:55:32.968Z,83.43
2023-09-18T06:56:32.245Z,83.33
2023-09-18T06:57:32.139Z,83.53
2023-09-18T06:58:32.091Z,83.09
2023-09-18T06:59:32.457Z,82.49
2023-09-18T07:00:32.518Z,81.99
2023-09-18T07:01:32.098Z,81.79
2023-09-18T07:02:32.099Z,81.69
2023-09-18T07:03:32.138Z,82.35
2023-09-18T07:04:31.905Z,82.55
2023-09-18T07:05:31.918Z,81.05
2023-09-18T07:06:31.949Z,82.05
2023-09-18T07:07:31.958Z,81.56
2023-09-18T07:08:32.008Z,81.95
2023-09-18T07:09:34.635Z,82.45
2023-09-18T07:10:31.954Z,81.56
2023-09-18T07:11:31.939Z,81.45
2023-09-18T07:12:31.870Z,81.65
2023-09-18T07:13:31.872Z,82.05
2023-09-18T07:14:31.909Z,81.95
2023-09-18T07:15:31.836Z,81.85
2023-09-18T07:16:31.854Z,81.95
2023-09-18T07:17:31.908Z,81.95
2023-09-18T07:18:31.735Z,82.45
2023-09-18T07:19:31.701Z,82.75
2023-09-18T07:20:31.937Z,81.85
2023-09-18T07:21:31.795Z,81.99
2023-09-18T07:22:31.649Z,82.19
2023-09-18T07:23:32.205Z,81.99
2023-09-18T07:24:32.016Z,81.69
2023-09-18T07:25:31.664Z,82.19
2023-09-18T07:26:31.780Z,82.09
2023-09-18T07:27:31.681Z,81.79
2023-09-18T07:28:31.749Z,82.39
2023-09-18T07:29:31.692Z,81.99
2023-09-18T07:30:33.430Z,82.09
2023-09-18T07:31:31.630Z,82.29
2023-09-18T07:32:38.054Z,82.99
2023-09-18T07:33:32.638Z,82.99
2023-09-18T07:34:31.574Z,82.69
2023-09-18T07:35:31.549Z,82.89
2023-09-18T07:36:31.478Z,81.99
2023-09-18T07:37:31.606Z,82.59
2023-09-18T07:38:31.621Z,81.99
2023-09-18T07:39:31.450Z,81.99
2023-09-18T07:40:31.432Z,82.09
2023-09-18T07:41:31.419Z,81.89
2023-09-18T07:42:31.517Z,82.09
2023-09-18T07:43:31.505Z,82.39
2023-09-18T07:44:31.382Z,82.59
2023-09-18T07:45:31.407Z,82.69
2023-09-18T07:46:31.365Z,82.29
2023-09-18T07:47:31.432Z,81.99
2023-09-18T07:48:31.433Z,82.69
2023-09-18T07:49:31.441Z,83.09
2023-09-18T07:50:31.360Z,82.69
2023-09-18T07:51:31.329Z,82.19
2023-09-18T07:52:31.392Z,82.29
2023-09-18T07:53:31.359Z,82.15
2023-09-18T07:54:31.253Z,82.05
2023-09-18T07:55:31.281Z,81.56
2023-09-18T07:56:31.307Z,81.85
2023-09-18T07:57:31.344Z,81.85
2023-09-18T07:58:31.223Z,81.71
2023-09-18T07:59:31.362Z,81.41
2023-09-18T08:00:31.200Z,80.58
2023-09-18T08:01:31.437Z,80.24
2023-09-18T08:02:31.236Z,79.90
2023-09-18T08:03:31.288Z,80.00
2023-09-18T08:04:31.233Z,78.90
2023-09-18T08:05:31.233Z,78.67
2023-09-18T08:06:31.185Z,79.57
2023-09-18T08:07:31.080Z,79.57
2023-09-18T08:08:31.189Z,78.27
2023-09-18T08:09:31.129Z,78.67
2023-09-18T08:10:31.028Z,78.27
2023-09-18T08:11:31.138Z,78.67
2023-09-18T08:12:31.028Z,78.67
2023-09-18T08:13:31.034Z,78.67
2023-09-18T08:14:31.178Z,78.77
2023-09-18T08:15:31.126Z,78.86
2023-09-18T08:16:30.992Z,79.30
2023-09-18T08:17:31.132Z,79.60
2023-09-18T08:18:31.008Z,79.00
2023-09-18T08:19:30.984Z,79.60
2023-09-18T08:20:31.015Z,79.40
2023-09-18T08:21:30.986Z,80.00
2023-09-18T08:22:30.898Z,79.96
2023-09-18T08:23:30.948Z,78.86
2023-09-18T08:24:30.912Z,78.97
2023-09-18T08:25:30.971Z,79.27
2023-09-18T08:26:31.063Z,78.67
2023-09-18T08:27:30.877Z,79.22
2023-09-18T08:28:30.829Z,79.72
2023-09-18T08:29:31.181Z,78.63
2023-09-18T08:30:30.967Z,78.43
2023-09-18T08:31:31.090Z,79.03
2023-09-18T08:32:31.081Z,78.73
2023-09-18T08:33:31.074Z,79.09
2023-09-18T08:34:31.088Z,78.59
2023-09-18T08:35:30.833Z,79.28
2023-09-18T08:36:30.904Z,78.39
2023-09-18T08:37:30.842Z,77.69
2023-09-18T08:38:30.927Z,77.69
2023-09-18T08:39:30.810Z,77.80
2023-09-18T08:40:31.030Z,78.63
2023-09-18T08:41:31.200Z,79.06
2023-09-18T08:42:31.158Z,79.36
2023-09-18T08:43:30.746Z,78.86
2023-09-18T08:44:31.008Z,79.96
2023-09-18T08:45:31.518Z,79.96
2023-09-18T08:46:33.608Z,80.36
2023-09-18T08:47:30.816Z,80.96
2023-09-18T08:48:31.275Z,80.40
2023-09-18T08:49:30.780Z,81.20
2023-09-18T08:50:30.676Z,81.10
2023-09-18T08:51:30.871Z,80.90
2023-09-18T08:52:30.940Z,81.49
2023-09-18T08:53:30.916Z,81.36
2023-09-18T08:54:31.010Z,80.56
2023-09-18T08:55:30.598Z,80.66
2023-09-18T08:56:30.782Z,81.06
2023-09-18T08:57:30.691Z,81.16
2023-09-18T08:58:30.574Z,80.66
2023-09-18T08:59:30.637Z,80.76
2023-09-18T09:00:30.460Z,80.66
2023-09-18T09:01:30.612Z,81.16
2023-09-18T09:02:32.211Z,81.06
2023-09-18T09:03:30.586Z,81.49
2023-09-18T09:04:32.522Z,81.79
2023-09-18T09:05:30.509Z,81.99
2023-09-18T09:06:30.902Z,81.70
2023-09-18T09:07:30.944Z,82.29
2023-09-18T09:08:30.526Z,82.29
2023-09-18T09:09:30.570Z,83.09
2023-09-18T09:10:30.291Z,83.09
2023-09-18T09:11:30.666Z,83.05
2023-09-18T09:12:30.259Z,82.65
2023-09-18T09:13:39.935Z,82.95
2023-09-18T09:14:31.283Z,82.75
2023-09-18T09:15:30.427Z,83.21
2023-09-18T09:16:30.330Z,83.61
2023-09-18T09:17:30.331Z,84.31
2023-09-18T09:18:30.322Z,83.07
2023-09-18T09:19:30.190Z,82.48
2023-09-18T09:20:30.233Z,82.42
2023-09-18T09:21:30.515Z,81.72
2023-09-18T09:22:30.183Z,80.62
2023-09-18T09:23:30.320Z,81.02
2023-09-18T09:24:30.122Z,81.88
2023-09-18T09:25:30.131Z,81.08
2023-09-18T09:26:30.058Z,81.68
2023-09-18T09:27:30.045Z,81.58
2023-09-18T09:28:30.110Z,81.18
2023-09-18T09:29:30.063Z,81.14
2023-09-18T09:30:30.121Z,80.84
2023-09-18T09:31:30.341Z,81.10
2023-09-18T09:32:30.174Z,80.21
2023-09-18T09:33:30.018Z,83.00
2023-09-18T09:34:30.077Z,83.25
2023-09-18T09:35:29.920Z,82.56
2023-09-18T09:36:30.054Z,78.67
2023-09-18T09:37:29.946Z,79.77
2023-09-18T09:38:30.060Z,78.78
2023-09-18T09:39:29.971Z,79.61
2023-09-18T09:40:29.905Z,79.01
2023-09-18T09:41:30.582Z,78.12
2023-09-18T09:42:29.824Z,78.72
2023-09-18T09:43:29.866Z,79.81
2023-09-18T09:44:29.826Z,77.36
2023-09-18T09:45:29.760Z,77.32
2023-09-18T09:46:29.991Z,76.43
2023-09-18T09:47:29.816Z,77.52
2023-09-18T09:48:29.830Z,76.13
2023-09-18T09:49:29.741Z,75.63
2023-09-18T09:50:29.800Z,75.79
2023-09-18T09:51:29.887Z,74.69
2023-09-18T09:52:29.714Z,75.99
2023-09-18T09:53:29.791Z,75.40
2023-09-18T09:54:29.726Z,75.49
2023-09-18T09:55:29.794Z,74.40
2023-09-18T09:56:29.724Z,75.99
2023-09-18T09:57:29.684Z,75.10
2023-09-18T09:58:29.706Z,74.40
2023-09-18T09:59:29.829Z,74.60
2023-09-18T10:00:29.627Z,74.90
2023-09-18T10:01:29.785Z,73.34
2023-09-18T10:02:29.713Z,74.40
2023-09-18T10:03:29.587Z,73.30
2023-09-18T10:04:30.131Z,74.10
2023-09-18T10:05:30.132Z,74.40
2023-09-18T10:06:29.593Z,74.76
2023-09-18T10:07:29.543Z,74.30
2023-09-18T10:08:29.908Z,74.80
2023-09-18T10:09:29.514Z,74.40
2023-09-18T10:10:29.534Z,74.69
2023-09-18T10:11:29.652Z,75.20
2023-09-18T10:12:29.473Z,74.66
2023-09-18T10:13:29.586Z,74.00
2023-09-18T10:14:29.498Z,74.86
2023-09-18T10:15:29.580Z,73.57
2023-09-18T10:16:29.521Z,73.57
2023-09-18T10:17:29.554Z,74.07
2023-09-18T10:18:29.514Z,72.97
2023-09-18T10:19:29.470Z,73.77
2023-09-18T10:20:29.742Z,72.38
2023-09-18T10:21:29.401Z,74.26
2023-09-18T10:22:29.450Z,73.07
2023-09-18T10:23:42.878Z,73.37
2023-09-18T10:24:30.153Z,74.66
2023-09-18T10:25:31.049Z,73.57
2023-09-18T10:26:35.077Z,74.16
2023-09-18T10:27:29.211Z,74.07
2023-09-18T10:28:29.183Z,74.96
2023-09-18T10:29:29.224Z,74.80
2023-09-18T10:30:29.162Z,74.30
2023-09-18T10:31:29.174Z,74.40
2023-09-18T10:32:29.252Z,74.69
2023-09-18T10:33:29.165Z,75.79
2023-09-18T10:34:29.120Z,75.29
2023-09-18T10:35:29.100Z,74.90
2023-09-18T10:37:29.082Z,74.90
2023-09-18T10:38:29.070Z,74.90
2023-09-18T10:39:31.283Z,74.80
2023-09-18T10:40:29.063Z,75.29
2023-09-18T10:41:29.064Z,74.99
2023-09-18T10:42:29.015Z,74.99
2023-09-18T10:43:29.011Z,74.60
2023-09-18T10:44:29.025Z,74.66
2023-09-18T10:45:28.970Z,75.06
2023-09-18T10:46:29.004Z,74.86
2023-09-18T10:47:29.000Z,73.97
2023-09-18T10:48:28.961Z,74.86
2023-09-18T10:49:28.919Z,74.60
2023-09-18T10:50:28.915Z,74.50
2023-09-18T10:51:28.888Z,75.59
2023-09-18T10:52:28.869Z,75.49
2023-09-18T10:53:28.910Z,75.10
2023-09-18T10:54:28.874Z,75.20
2023-09-18T10:55:28.868Z,75.89
2023-09-18T10:56:28.835Z,75.73
2023-09-18T10:57:28.816Z,76.49
2023-09-18T10:58:28.806Z,75.29
2023-09-18T10:59:28.817Z,76.29
2023-09-18T11:00:28.789Z,75.40
2023-09-18T11:01:28.777Z,75.79
2023-09-18T11:02:28.830Z,75.16
2023-09-18T11:03:28.853Z,74.37
2023-09-18T11:04:28.735Z,74.76
2023-09-18T11:05:28.740Z,75.06
2023-09-18T11:06:28.702Z,74.96
2023-09-18T11:07:28.695Z,74.37
2023-09-18T11:08:28.736Z,74.26
2023-09-18T11:09:28.665Z,74.96
2023-09-18T11:10:28.659Z,75.12
2023-09-18T11:11:28.664Z,74.13
2023-09-18T11:12:28.636Z,73.77
2023-09-18T11:13:28.604Z,73.67
2023-09-18T11:14:28.596Z,74.26
2023-09-18T11:15:28.934Z,75.62
2023-09-18T11:16:28.920Z,73.86
2023-09-18T11:17:28.622Z,73.17
2023-09-18T11:18:28.615Z,74.66
2023-09-18T11:19:28.549Z,74.37
2023-09-18T11:20:28.581Z,74.43
2023-09-18T11:21:28.517Z,74.63
2023-09-18T11:22:28.498Z,74.13
2023-09-18T11:23:28.495Z,73.63
2023-09-18T11:24:28.455Z,73.77
2023-09-18T11:25:28.433Z,73.97
2023-09-18T11:26:28.494Z,74.07
2023-09-18T11:27:28.414Z,73.77
2023-09-18T11:28:28.419Z,74.56
2023-09-18T11:29:28.579Z,73.77
2023-09-18T11:30:28.392Z,73.86
2023-09-18T11:31:28.397Z,74.76
2023-09-18T11:32:28.418Z,74.63
2023-09-18T11:33:28.384Z,73.14
2023-09-18T11:34:28.352Z,73.37
2023-09-18T11:35:28.340Z,74.16
2023-09-18T11:36:28.299Z,74.03
2023-09-18T11:37:28.283Z,73.54
2023-09-18T11:38:28.310Z,72.74
2023-09-18T11:39:28.260Z,74.03
2023-09-18T11:40:28.264Z,73.20
2023-09-18T11:41:28.336Z,73.20
2023-09-18T11:42:28.230Z,73.10
2023-09-18T11:43:35.709Z,73.86
2023-09-18T11:44:38.222Z,72.01
2023-09-18T11:45:28.180Z,72.71
2023-09-18T11:46:28.178Z,73.10
2023-09-18T11:47:28.182Z,73.10
2023-09-18T11:48:28.206Z,73.69
2023-09-18T11:49:28.138Z,73.00
2023-09-18T11:50:28.167Z,73.80
2023-09-18T11:51:28.104Z,72.41
2023-09-18T11:52:28.102Z,72.90
2023-09-18T11:53:28.120Z,73.50
2023-09-18T11:54:28.078Z,72.64
2023-09-18T11:55:28.097Z,72.64
2023-09-18T11:56:28.093Z,73.93
2023-09-18T11:57:28.029Z,73.27
2023-09-18T11:58:28.034Z,73.47
2023-09-18T11:59:28.034Z,73.80
2023-09-18T12:00:28.008Z,74.07
2023-09-18T12:01:27.993Z,74.56
2023-09-18T12:02:28.020Z,74.52
2023-09-18T12:03:28.293Z,73.33
2023-09-18T12:04:27.983Z,74.03
2023-09-18T12:05:27.946Z,73.63
2023-09-18T12:06:27.915Z,73.83
2023-09-18T12:07:27.896Z,74.03
2023-09-18T12:08:27.920Z,74.93
2023-09-18T12:09:27.896Z,73.73
2023-09-18T12:10:27.864Z,73.90
2023-09-18T12:11:27.868Z,72.94
2023-09-18T12:12:27.932Z,73.03
2023-09-18T12:13:27.829Z,74.23
2023-09-18T12:14:27.842Z,73.83
2023-09-18T12:15:27.785Z,74.03
2023-09-18T12:16:27.832Z,73.37
2023-09-18T12:17:27.816Z,74.23
2023-09-18T12:18:29.906Z,74.33
2023-09-18T12:19:27.763Z,74.46
2023-09-18T12:20:27.762Z,75.06
2023-09-18T12:21:27.712Z,74.07
2023-09-18T12:22:27.751Z,74.76
2023-09-18T12:23:27.748Z,74.93
2023-09-18T12:24:27.680Z,74.33
2023-09-18T12:25:27.652Z,73.63
2023-09-18T12:26:27.712Z,74.16
2023-09-18T12:27:27.654Z,73.24
2023-09-18T12:28:27.634Z,74.33
2023-09-18T12:29:27.644Z,73.93
2023-09-18T12:30:27.606Z,74.93
2023-09-18T12:31:27.614Z,72.94
2023-09-18T12:32:27.604Z,73.03
2023-09-18T12:33:27.634Z,73.37
2023-09-18T12:34:27.580Z,74.76
2023-09-18T12:35:27.560Z,74.99
2023-09-18T12:36:27.548Z,74.80
2023-09-18T12:37:27.517Z,74.80
2023-09-18T12:38:27.522Z,74.50
2023-09-18T12:39:27.498Z,74.90
2023-09-18T12:40:27.487Z,75.49
2023-09-18T12:41:32.688Z,75.20
2023-09-18T12:42:28.466Z,75.33
2023-09-18T12:43:27.443Z,75.23
2023-09-18T12:44:27.439Z,75.53
2023-09-18T12:45:27.420Z,75.53
2023-09-18T12:46:27.469Z,75.83
2023-09-18T12:47:27.417Z,75.73
2023-09-18T12:48:27.469Z,75.20
2023-09-18T12:49:27.375Z,76.19
2023-09-18T12:50:27.544Z,75.29
2023-09-18T12:51:27.343Z,75.49
2023-09-18T12:52:27.334Z,75.69
2023-09-18T12:53:27.367Z,75.23